Time;durP1;ratioP1;P1;durP2;ratioP2;P2;SDS_P1;SDS_P2;PMS_P1;PMS_P2;Temp;Humidity;BMP_temperature;BMP_pressure;BME280_temperature;BME280_humidity;BME280_pressure;Samples;Min_cycle;Max_cycle;Signal;HPM_P1;HPM_P2
2023/08/01 00:09:16;;;;;;;3.87;3.47;;;18.90;98.10;;;;;;5852991;24;20288;-88
2023/08/01 01:09:45;;;;;;;7.77;4.20;;;18.10;99.90;;;;;;5812397;24;20551;-84
2023/08/01 01:30:21;;;;;;;6.13;4.90;;;18.20;99.90;;;;;;5774159;24;20214;-86
2023/08/01 02:20:50;;;;;;;5.50;5.00;;;17.70;99.90;;;;;;5660738;24;20651;-88
2023/08/01 02:40:40;;;;;;;12.53;4.90;;;17.40;99.90;;;;;;5783690;23;20556;-88
2023/08/01 03:01:41;;;;;;;8.73;4.90;;;17.40;99.90;;;;;;5972742;23;20248;-86
2023/08/01 03:46:40;;;;;;;5.03;4.53;;;17.90;99.90;;;;;;6220342;22;20294;31
2023/08/01 04:12:29;;;;;;;6.30;4.40;;;18.20;99.90;;;;;;5838579;24;20307;-87
2023/08/01 04:42:21;;;;;;;5.70;4.40;;;18.60;99.90;;;;;;5768595;24;20340;-87
2023/08/01 05:03:01;;;;;;;6.23;4.43;;;19.00;99.30;;;;;;5731292;24;20186;-88
2023/08/01 05:28:17;;;;;;;6.40;3.97;;;20.80;90.70;;;;;;5684405;24;20731;-88
2023/08/01 05:43:27;;;;;;;4.23;3.40;;;20.60;90.00;;;;;;6236556;22;20211;-87
2023/08/01 06:13:52;;;;;;;8.02;3.50;;;21.50;84.60;;;;;;5790090;24;20505;-83
2023/08/01 07:04:51;;;;;;;3.85;2.97;;;22.60;82.90;;;;;;5877240;23;20493;-89
2023/08/01 07:25:07;;;;;;;3.45;2.88;;;23.60;79.30;;;;;;5819331;24;20652;-84
2023/08/01 09:53:30;;;;;;;5.43;3.80;;;25.00;72.30;;;;;;5985225;23;20486;-80
2023/08/01 10:29:09;;;;;;;4.18;3.40;;;24.70;81.70;;;;;;5844027;23;20450;-82
2023/08/01 10:49:08;;;;;;;4.85;4.07;;;22.50;97.40;;;;;;5587814;24;20213;-86
2023/08/01 11:14:51;;;;;;;4.18;3.83;;;22.40;99.90;;;;;;5817915;23;20278;-85
2023/08/01 11:50:15;;;;;;;6.30;4.80;;;22.50;99.90;;;;;;5864612;23;20237;-84
2023/08/01 12:15:32;;;;;;;6.75;4.18;;;23.20;94.70;;;;;;5935237;23;20178;-84
2023/08/01 12:35:56;;;;;;;4.43;4.03;;;23.20;93.70;;;;;;5949733;23;20222;-83
2023/08/01 13:01:24;;;;;;;5.55;3.90;;;23.30;90.90;;;;;;5847730;23;20255;-87
2023/08/01 13:26:18;;;;;;;4.20;3.80;;;23.90;89.90;;;;;;5602684;24;20448;-84
2023/08/01 13:46:49;;;;;;;3.95;3.38;;;23.80;88.60;;;;;;5593459;24;20184;-83
2023/08/01 14:17:32;;;;;;;5.20;4.22;;;22.40;98.90;;;;;;5782449;24;20175;-84
2023/08/01 14:42:42;;;;;;;7.28;4.50;;;23.20;92.90;;;;;;5786559;23;20210;-88
2023/08/01 15:27:55;;;;;;;8.00;6.67;;;19.90;99.90;;;;;;5850615;24;20711;-88
2023/08/01 15:53:50;;;;;;;7.23;6.23;;;20.30;99.90;;;;;;5846200;24;20405;-84
2023/08/01 16:24:16;;;;;;;5.53;4.40;;;20.50;99.90;;;;;;5877930;23;20701;-84
2023/08/01 16:49:36;;;;;;;4.67;4.13;;;20.60;99.90;;;;;;5672516;24;20616;-85
2023/08/01 17:14:30;;;;;;;4.87;4.37;;;20.40;99.90;;;;;;5692955;24;20300;-85
2023/08/01 17:35:20;;;;;;;5.03;4.40;;;20.20;99.90;;;;;;5705076;24;20288;-84
2023/08/01 18:00:47;;;;;;;5.50;4.40;;;20.00;99.90;;;;;;5707461;24;20193;-89
2023/08/01 18:30:33;;;;;;;4.63;4.17;;;19.80;99.90;;;;;;5676537;24;20207;-85
2023/08/01 19:46:57;;;;;;;5.00;4.60;;;19.60;99.90;;;;;;5588801;24;20484;-86
2023/08/01 20:07:27;;;;;;;5.77;4.40;;;19.30;99.90;;;;;;5539205;25;20185;-86
2023/08/01 20:27:50;;;;;;;5.13;4.63;;;19.30;99.90;;;;;;5680665;24;20430;-85
2023/08/01 21:18:20;;;;;;;6.87;6.27;;;18.40;99.90;;;;;;5856800;24;20253;-84
2023/08/01 22:14:20;;;;;;;6.87;6.17;;;18.10;99.90;;;;;;5840236;24;20867;-87
2023/08/01 22:44:14;;;;;;;7.43;6.37;;;17.90;99.90;;;;;;5934221;23;20522;-82
2023/08/01 23:05:09;;;;;;;6.50;5.90;;;17.90;99.90;;;;;;6014197;23;20242;-86
2023/08/01 23:25:16;;;;;;;6.87;5.90;;;17.80;99.90;;;;;;5784833;24;20428;-86
